sensor_id;sensor_type;location;lat;lon;timestamp;pressure;altitude;pressure_sealevel;temperature;humidity
75538;BME280;64121;48.666;8.114;2023-05-23T00:01:59;99891.28;;;15.41;95.66
75538;BME280;64121;48.666;8.114;2023-05-23T00:04:25;99893.69;;;15.42;95.27
75538;BME280;64121;48.666;8.114;2023-05-23T00:06:51;99879.38;;;15.51;94.64
75538;BME280;64121;48.666;8.114;2023-05-23T00:09:17;99884.59;;;15.49;95.55
75538;BME280;64121;48.666;8.114;2023-05-23T00:11:42;99881.66;;;15.38;96.29
75538;BME280;64121;48.666;8.114;2023-05-23T00:14:08;99873.66;;;15.40;95.66
75538;BME280;64121;48.666;8.114;2023-05-23T00:16:33;99880.06;;;15.41;95.90
75538;BME280;64121;48.666;8.114;2023-05-23T00:18:59;99874.53;;;15.44;96.28
75538;BME280;64121;48.666;8.114;2023-05-23T00:21:24;99882.13;;;15.44;96.30
75538;BME280;64121;48.666;8.114;2023-05-23T00:23:51;99878.56;;;15.47;95.42
75538;BME280;64121;48.666;8.114;2023-05-23T00:26:16;99881.75;;;15.45;95.94
75538;BME280;64121;48.666;8.114;2023-05-23T00:28:41;99885.00;;;15.51;95.78
75538;BME280;64121;48.666;8.114;2023-05-23T00:31:07;99882.59;;;15.50;95.92
75538;BME280;64121;48.666;8.114;2023-05-23T00:33:32;99888.63;;;15.52;95.21
75538;BME280;64121;48.666;8.114;2023-05-23T00:35:57;99886.19;;;15.50;95.41
75538;BME280;64121;48.666;8.114;2023-05-23T00:38:23;99889.38;;;15.49;95.24
75538;BME280;64121;48.666;8.114;2023-05-23T00:40:49;99894.03;;;15.34;96.71
75538;BME280;64121;48.666;8.114;2023-05-23T00:43:15;99901.78;;;15.14;99.13
75538;BME280;64121;48.666;8.114;2023-05-23T00:45:40;99898.22;;;15.17;98.50
75538;BME280;64121;48.666;8.114;2023-05-23T00:48:06;99897.06;;;15.22;97.78
75538;BME280;64121;48.666;8.114;2023-05-23T00:50:32;99900.38;;;15.27;97.61
75538;BME280;64121;48.666;8.114;2023-05-23T00:52:59;99899.13;;;15.25;96.43
75538;BME280;64121;48.666;8.114;2023-05-23T00:55:25;99898.31;;;15.24;96.46
75538;BME280;64121;48.666;8.114;2023-05-23T00:57:52;99898.38;;;15.28;96.13
75538;BME280;64121;48.666;8.114;2023-05-23T01:00:17;99894.69;;;15.24;96.76
75538;BME280;64121;48.666;8.114;2023-05-23T01:02:44;99902.03;;;15.35;96.30
75538;BME280;64121;48.666;8.114;2023-05-23T01:05:10;99901.66;;;15.37;96.08
75538;BME280;64121;48.666;8.114;2023-05-23T01:07:35;99898.47;;;15.38;95.89
75538;BME280;64121;48.666;8.114;2023-05-23T01:10:01;99894.56;;;15.47;95.99
75538;BME280;64121;48.666;8.114;2023-05-23T01:12:33;99911.03;;;15.52;95.30
75538;BME280;64121;48.666;8.114;2023-05-23T01:15:06;99908.28;;;15.55;95.64
75538;BME280;64121;48.666;8.114;2023-05-23T01:17:38;99914.38;;;15.61;95.75
75538;BME280;64121;48.666;8.114;2023-05-23T01:20:08;99903.94;;;15.61;96.22
75538;BME280;64121;48.666;8.114;2023-05-23T01:23:03;99912.31;;;15.58;96.61
75538;BME280;64121;48.666;8.114;2023-05-23T01:25:44;99910.00;;;15.63;95.75
75538;BME280;64121;48.666;8.114;2023-05-23T01:28:15;99913.66;;;15.67;96.10
75538;BME280;64121;48.666;8.114;2023-05-23T01:30:43;99908.00;;;15.64;96.58
75538;BME280;64121;48.666;8.114;2023-05-23T01:33:10;99910.44;;;15.65;96.25
75538;BME280;64121;48.666;8.114;2023-05-23T01:35:37;99908.41;;;15.62;95.81
75538;BME280;64121;48.666;8.114;2023-05-23T01:38:03;99910.00;;;15.63;96.01
75538;BME280;64121;48.666;8.114;2023-05-23T01:40:29;99910.00;;;15.63;96.00
75538;BME280;64121;48.666;8.114;2023-05-23T01:42:55;99905.59;;;15.62;95.97
75538;BME280;64121;48.666;8.114;2023-05-23T01:45:25;99911.88;;;15.56;96.83
75538;BME280;64121;48.666;8.114;2023-05-23T01:47:50;99917.78;;;15.43;97.09
75538;BME280;64121;48.666;8.114;2023-05-23T01:50:16;99913.78;;;15.44;96.81
75538;BME280;64121;48.666;8.114;2023-05-23T01:52:42;99919.75;;;15.43;96.74
75538;BME280;64121;48.666;8.114;2023-05-23T01:55:08;99917.78;;;15.43;96.70
75538;BME280;64121;48.666;8.114;2023-05-23T01:57:35;99918.53;;;15.40;97.52
75538;BME280;64121;48.666;8.114;2023-05-23T02:00:00;99921.41;;;15.48;97.26
75538;BME280;64121;48.666;8.114;2023-05-23T02:02:27;99917.50;;;15.56;97.30
75538;BME280;64121;48.666;8.114;2023-05-23T02:04:52;99917.06;;;15.54;97.02
75538;BME280;64121;48.666;8.114;2023-05-23T02:07:18;99911.44;;;15.50;97.20
75538;BME280;64121;48.666;8.114;2023-05-23T02:09:43;99923.03;;;15.49;97.71
75538;BME280;64121;48.666;8.114;2023-05-23T02:12:08;99910.31;;;15.58;97.01
75538;BME280;64121;48.666;8.114;2023-05-23T02:14:34;99918.47;;;15.67;96.99
75538;BME280;64121;48.666;8.114;2023-05-23T02:16:59;99923.66;;;15.65;98.01
75538;BME280;64121;48.666;8.114;2023-05-23T02:19:26;99925.16;;;15.59;98.94
75538;BME280;64121;48.666;8.114;2023-05-23T02:21:51;99922.28;;;15.55;98.63
75538;BME280;64121;48.666;8.114;2023-05-23T02:24:16;99932.09;;;15.68;97.63
75538;BME280;64121;48.666;8.114;2023-05-23T02:26:42;99925.75;;;15.75;97.12
75538;BME280;64121;48.666;8.114;2023-05-23T02:29:07;99924.97;;;15.78;96.74
75538;BME280;64121;48.666;8.114;2023-05-23T02:31:33;99927.78;;;15.78;96.89
75538;BME280;64121;48.666;8.114;2023-05-23T02:33:58;99924.16;;;15.78;96.89
75538;BME280;64121;48.666;8.114;2023-05-23T02:36:25;99937.78;;;15.75;97.20
75538;BME280;64121;48.666;8.114;2023-05-23T02:38:50;99932.56;;;15.78;97.26
75538;BME280;64121;48.666;8.114;2023-05-23T02:41:15;99935.06;;;15.83;96.77
75538;BME280;64121;48.666;8.114;2023-05-23T02:43:41;99930.66;;;15.85;96.54
75538;BME280;64121;48.666;8.114;2023-05-23T02:46:06;99934.66;;;15.84;96.52
75538;BME280;64121;48.666;8.114;2023-05-23T02:48:31;99934.31;;;15.89;96.70
75538;BME280;64121;48.666;8.114;2023-05-23T02:50:57;99942.66;;;15.82;96.80
75538;BME280;64121;48.666;8.114;2023-05-23T02:53:23;99936.59;;;15.80;96.78
75538;BME280;64121;48.666;8.114;2023-05-23T02:55:49;99941.47;;;15.83;96.55
75538;BME280;64121;48.666;8.114;2023-05-23T02:58:14;99943.88;;;15.85;96.53
75538;BME280;64121;48.666;8.114;2023-05-23T03:00:39;99948.72;;;15.88;97.09
75538;BME280;64121;48.666;8.114;2023-05-23T03:03:05;99947.53;;;15.89;97.08
75538;BME280;64121;48.666;8.114;2023-05-23T03:05:30;99947.91;;;15.87;97.67
75538;BME280;64121;48.666;8.114;2023-05-23T03:07:55;99953.88;;;15.82;98.30
75538;BME280;64121;48.666;8.114;2023-05-23T03:10:22;99953.81;;;15.79;99.26
75538;BME280;64121;48.666;8.114;2023-05-23T03:12:47;99948.28;;;15.82;98.23
75538;BME280;64121;48.666;8.114;2023-05-23T03:15:12;99947.94;;;15.91;97.52
75538;BME280;64121;48.666;8.114;2023-05-23T03:17:38;99943.97;;;15.95;97.10
75538;BME280;64121;48.666;8.114;2023-05-23T03:20:04;99952.50;;;16.02;96.72
75538;BME280;64121;48.666;8.114;2023-05-23T03:22:29;99946.88;;;16.02;96.94
75538;BME280;64121;48.666;8.114;2023-05-23T03:24:55;99953.69;;;16.01;96.80
75538;BME280;64121;48.666;8.114;2023-05-23T03:27:21;99948.09;;;16.05;96.04
75538;BME280;64121;48.666;8.114;2023-05-23T03:29:47;99947.72;;;16.07;96.61
75538;BME280;64121;48.666;8.114;2023-05-23T03:32:12;99940.88;;;16.04;96.36
75538;BME280;64121;48.666;8.114;2023-05-23T03:34:37;99951.72;;;16.05;96.41
75538;BME280;64121;48.666;8.114;2023-05-23T03:37:03;99950.13;;;16.08;95.94
75538;BME280;64121;48.666;8.114;2023-05-23T03:39:28;99953.38;;;16.14;96.06
75538;BME280;64121;48.666;8.114;2023-05-23T03:41:54;99949.38;;;16.15;96.40
75538;BME280;64121;48.666;8.114;2023-05-23T03:44:20;99956.16;;;16.10;96.26
75538;BME280;64121;48.666;8.114;2023-05-23T03:46:46;99967.38;;;16.10;96.77
75538;BME280;64121;48.666;8.114;2023-05-23T03:49:11;99963.38;;;16.11;96.07
75538;BME280;64121;48.666;8.114;2023-05-23T03:51:36;99969.44;;;16.17;95.82
75538;BME280;64121;48.666;8.114;2023-05-23T03:54:02;99963.06;;;16.20;95.59
75538;BME280;64121;48.666;8.114;2023-05-23T03:56:27;99964.69;;;16.21;95.54
75538;BME280;64121;48.666;8.114;2023-05-23T03:58:53;99960.28;;;16.23;95.05
75538;BME280;64121;48.666;8.114;2023-05-23T04:01:19;99954.66;;;16.20;95.27
75538;BME280;64121;48.666;8.114;2023-05-23T04:03:45;99954.66;;;16.20;95.03
75538;BME280;64121;48.666;8.114;2023-05-23T04:06:10;99961.06;;;16.20;95.34
75538;BME280;64121;48.666;8.114;2023-05-23T04:08:35;99968.22;;;16.14;95.42
75538;BME280;64121;48.666;8.114;2023-05-23T04:11:01;99975.81;;;16.10;95.93
75538;BME280;64121;48.666;8.114;2023-05-23T04:13:26;99972.59;;;16.12;95.14
75538;BME280;64121;48.666;8.114;2023-05-23T04:15:51;99974.25;;;16.16;95.13
75538;BME280;64121;48.666;8.114;2023-05-23T04:18:18;99979.13;;;16.19;95.01
75538;BME280;64121;48.666;8.114;2023-05-23T04:20:45;99967.53;;;16.24;95.04
75538;BME280;64121;48.666;8.114;2023-05-23T04:23:10;99975.59;;;16.29;95.40
75538;BME280;64121;48.666;8.114;2023-05-23T04:25:35;99982.03;;;16.33;95.49
75538;BME280;64121;48.666;8.114;2023-05-23T04:28:01;99974.03;;;16.35;95.09
75538;BME280;64121;48.666;8.114;2023-05-23T04:30:26;99976.06;;;16.39;94.88
75538;BME280;64121;48.666;8.114;2023-05-23T04:32:51;99980.50;;;16.40;94.91
75538;BME280;64121;48.666;8.114;2023-05-23T04:35:18;99970.47;;;16.39;95.07
75538;BME280;64121;48.666;8.114;2023-05-23T04:37:43;99980.50;;;16.40;94.82
75538;BME280;64121;48.666;8.114;2023-05-23T04:40:09;99981.31;;;16.40;95.47
75538;BME280;64121;48.666;8.114;2023-05-23T04:42:35;99988.13;;;16.43;95.60
75538;BME280;64121;48.666;8.114;2023-05-23T04:45:00;99984.44;;;16.35;95.76
75538;BME280;64121;48.666;8.114;2023-05-23T04:47:26;99990.53;;;16.41;95.28
75538;BME280;64121;48.666;8.114;2023-05-23T04:49:51;99991.78;;;16.47;94.90
75538;BME280;64121;48.666;8.114;2023-05-23T04:52:18;100000.22;;;16.47;95.75
75538;BME280;64121;48.666;8.114;2023-05-23T04:54:44;100006.25;;;16.49;95.97
75538;BME280;64121;48.666;8.114;2023-05-23T04:57:09;100007.13;;;16.56;95.30
75538;BME280;64121;48.666;8.114;2023-05-23T04:59:35;100007.94;;;16.57;95.63
75538;BME280;64121;48.666;8.114;2023-05-23T05:02:00;100011.53;;;16.57;95.19
75538;BME280;64121;48.666;8.114;2023-05-23T05:04:25;100013.97;;;16.62;94.81
75538;BME280;64121;48.666;8.114;2023-05-23T05:06:51;100013.59;;;16.64;94.61
75538;BME280;64121;48.666;8.114;2023-05-23T05:09:17;100020.88;;;16.69;94.15
75538;BME280;64121;48.666;8.114;2023-05-23T05:11:43;100016.88;;;16.70;94.08
75538;BME280;64121;48.666;8.114;2023-05-23T05:14:08;100016.06;;;16.69;94.42
75538;BME280;64121;48.666;8.114;2023-05-23T05:16:33;100016.47;;;16.71;94.27
75538;BME280;64121;48.666;8.114;2023-05-23T05:18:59;100027.38;;;16.76;94.28
75538;BME280;64121;48.666;8.114;2023-05-23T05:21:24;100033.81;;;16.77;94.91
75538;BME280;64121;48.666;8.114;2023-05-23T05:23:49;100022.59;;;16.84;94.63
75538;BME280;64121;48.666;8.114;2023-05-23T05:26:16;100025.91;;;16.93;94.43
75538;BME280;64121;48.666;8.114;2023-05-23T05:28:41;100027.13;;;16.99;93.99
75538;BME280;64121;48.666;8.114;2023-05-23T05:31:07;100028.00;;;17.10;93.64
75538;BME280;64121;48.666;8.114;2023-05-23T05:33:32;100024.88;;;17.22;93.34
75538;BME280;64121;48.666;8.114;2023-05-23T05:35:57;100020.53;;;17.36;92.34
75538;BME280;64121;48.666;8.114;2023-05-23T05:38:23;100021.81;;;17.49;91.82
75538;BME280;64121;48.666;8.114;2023-05-23T05:40:48;100026.66;;;17.63;90.51
75538;BME280;64121;48.666;8.114;2023-05-23T05:43:15;100019.53;;;17.79;89.32
75538;BME280;64121;48.666;8.114;2023-05-23T05:45:40;100021.59;;;17.97;88.96
75538;BME280;64121;48.666;8.114;2023-05-23T05:48:05;100020.81;;;18.03;88.45
75538;BME280;64121;48.666;8.114;2023-05-23T05:50:31;100016.03;;;18.29;87.33
75538;BME280;64121;48.666;8.114;2023-05-23T05:52:56;100017.25;;;18.24;86.33
75538;BME280;64121;48.666;8.114;2023-05-23T05:55:21;100020.91;;;18.50;85.51
75538;BME280;64121;48.666;8.114;2023-05-23T05:57:47;100020.09;;;18.42;85.17
75538;BME280;64121;48.666;8.114;2023-05-23T06:00:14;100023.25;;;18.15;86.65
75538;BME280;64121;48.666;8.114;2023-05-23T06:02:40;100016.84;;;18.29;86.04
75538;BME280;64121;48.666;8.114;2023-05-23T06:05:06;100018.47;;;18.41;87.26
75538;BME280;64121;48.666;8.114;2023-05-23T06:07:32;100018.91;;;18.61;85.82
75538;BME280;64121;48.666;8.114;2023-05-23T06:09:57;100021.28;;;18.52;84.93
75538;BME280;64121;48.666;8.114;2023-05-23T06:12:23;100020.88;;;18.57;85.05
75538;BME280;64121;48.666;8.114;2023-05-23T06:14:48;100019.28;;;18.41;85.60
75538;BME280;64121;48.666;8.114;2023-05-23T06:17:15;100021.66;;;18.18;86.96
75538;BME280;64121;48.666;8.114;2023-05-23T06:19:40;100020.47;;;18.26;86.40
75538;BME280;64121;48.666;8.114;2023-05-23T06:22:05;100025.66;;;18.21;87.08
75538;BME280;64121;48.666;8.114;2023-05-23T06:24:31;100030.94;;;18.36;86.44
75538;BME280;64121;48.666;8.114;2023-05-23T06:26:56;100032.94;;;18.25;86.53
75538;BME280;64121;48.666;8.114;2023-05-23T06:29:21;100035.75;;;18.25;87.47
75538;BME280;64121;48.666;8.114;2023-05-23T06:31:47;100039.38;;;18.22;86.68
75538;BME280;64121;48.666;8.114;2023-05-23T06:34:13;100044.66;;;18.45;86.79
75538;BME280;64121;48.666;8.114;2023-05-23T06:36:39;100051.06;;;18.38;87.81
75538;BME280;64121;48.666;8.114;2023-05-23T06:39:04;100056.72;;;18.56;86.90
75538;BME280;64121;48.666;8.114;2023-05-23T06:41:29;100057.53;;;18.50;86.69
75538;BME280;64121;48.666;8.114;2023-05-23T06:43:55;100051.88;;;18.50;86.57
75538;BME280;64121;48.666;8.114;2023-05-23T06:46:20;100062.31;;;18.38;85.01
75538;BME280;64121;48.666;8.114;2023-05-23T06:48:45;100062.81;;;18.65;81.36
75538;BME280;64121;48.666;8.114;2023-05-23T06:51:12;100066.84;;;18.68;77.79
75538;BME280;64121;48.666;8.114;2023-05-23T06:53:37;100065.63;;;18.72;75.79
75538;BME280;64121;48.666;8.114;2023-05-23T06:56:03;100071.25;;;18.65;74.98
75538;BME280;64121;48.666;8.114;2023-05-23T06:58:28;100080.53;;;18.66;74.44
75538;BME280;64121;48.666;8.114;2023-05-23T07:00:54;100078.84;;;18.58;74.89
75538;BME280;64121;48.666;8.114;2023-05-23T07:03:19;100079.66;;;18.51;76.93
75538;BME280;64121;48.666;8.114;2023-05-23T07:05:44;100083.28;;;18.41;77.01
75538;BME280;64121;48.666;8.114;2023-05-23T07:08:11;100088.91;;;18.41;77.53
75538;BME280;64121;48.666;8.114;2023-05-23T07:10:36;100089.25;;;18.18;77.30
75538;BME280;64121;48.666;8.114;2023-05-23T07:13:02;100092.50;;;18.24;77.99
75538;BME280;64121;48.666;8.114;2023-05-23T07:15:27;100099.69;;;18.10;77.73
75538;BME280;64121;48.666;8.114;2023-05-23T07:17:53;100092.84;;;18.15;77.89
75538;BME280;64121;48.666;8.114;2023-05-23T07:20:18;100100.97;;;18.38;77.04
75538;BME280;64121;48.666;8.114;2023-05-23T07:22:43;100097.28;;;18.20;77.49
75538;BME280;64121;48.666;8.114;2023-05-23T07:25:10;100101.34;;;18.29;77.32
75538;BME280;64121;48.666;8.114;2023-05-23T07:27:35;100103.31;;;18.18;76.81
75538;BME280;64121;48.666;8.114;2023-05-23T07:30:01;100103.81;;;18.56;74.77
75538;BME280;64121;48.666;8.114;2023-05-23T07:32:26;100096.56;;;18.48;74.02
75538;BME280;64121;48.666;8.114;2023-05-23T07:34:51;100107.50;;;18.77;72.32
75538;BME280;64121;48.666;8.114;2023-05-23T07:37:17;100104.63;;;19.49;69.33
75538;BME280;64121;48.666;8.114;2023-05-23T07:39:42;100102.25;;;19.40;69.00
75538;BME280;64121;48.666;8.114;2023-05-23T07:42:09;100104.69;;;19.38;69.49
75538;BME280;64121;48.666;8.114;2023-05-23T07:44:34;100097.34;;;19.80;68.53
75538;BME280;64121;48.666;8.114;2023-05-23T07:46:59;100100.56;;;19.78;67.10
75538;BME280;64121;48.666;8.114;2023-05-23T07:49:25;100104.63;;;19.74;67.91
75538;BME280;64121;48.666;8.114;2023-05-23T07:51:50;100117.03;;;19.98;66.95
75538;BME280;64121;48.666;8.114;2023-05-23T07:54:15;100107.22;;;20.27;66.46
75538;BME280;64121;48.666;8.114;2023-05-23T07:56:41;100116.09;;;20.25;65.35
75538;BME280;64121;48.666;8.114;2023-05-23T07:59:11;100116.44;;;20.38;65.98
75538;BME280;64121;48.666;8.114;2023-05-23T08:01:36;100111.78;;;20.00;65.97
75538;BME280;64121;48.666;8.114;2023-05-23T08:04:02;100114.31;;;19.62;67.21
75538;BME280;64121;48.666;8.114;2023-05-23T08:06:27;100120.41;;;19.57;68.08
75538;BME280;64121;48.666;8.114;2023-05-23T08:08:52;100114.78;;;19.18;68.82
75538;BME280;64121;48.666;8.114;2023-05-23T08:11:18;100123.22;;;19.07;69.37
75538;BME280;64121;48.666;8.114;2023-05-23T08:13:43;100129.28;;;19.16;69.06
75538;BME280;64121;48.666;8.114;2023-05-23T08:16:10;100122.03;;;19.04;70.18
75538;BME280;64121;48.666;8.114;2023-05-23T08:18:35;100125.25;;;19.35;70.22
75538;BME280;64121;48.666;8.114;2023-05-23T08:21:01;100131.22;;;19.80;69.29
75538;BME280;64121;48.666;8.114;2023-05-23T08:23:26;100136.47;;;19.71;69.35
75538;BME280;64121;48.666;8.114;2023-05-23T08:25:51;100121.56;;;19.49;69.07
75538;BME280;64121;48.666;8.114;2023-05-23T08:28:17;100129.66;;;19.61;68.70
75538;BME280;64121;48.666;8.114;2023-05-23T08:30:42;100132.91;;;19.20;68.71
75538;BME280;64121;48.666;8.114;2023-05-23T08:33:09;100126.03;;;19.25;69.63
75538;BME280;64121;48.666;8.114;2023-05-23T08:35:34;100130.88;;;19.06;69.99
75538;BME280;64121;48.666;8.114;2023-05-23T08:37:59;100136.53;;;18.78;71.11
75538;BME280;64121;48.666;8.114;2023-05-23T08:40:26;100138.13;;;18.79;71.32
75538;BME280;64121;48.666;8.114;2023-05-23T08:42:51;100137.31;;;18.71;70.78
75538;BME280;64121;48.666;8.114;2023-05-23T08:45:17;100139.72;;;18.69;70.41
75538;BME280;64121;48.666;8.114;2023-05-23T08:47:43;100142.56;;;18.80;70.41
75538;BME280;64121;48.666;8.114;2023-05-23T08:50:11;100151.03;;;18.80;69.41
75538;BME280;64121;48.666;8.114;2023-05-23T08:52:42;100149.78;;;18.70;70.03
75538;BME280;64121;48.666;8.114;2023-05-23T08:55:09;100137.69;;;18.77;70.47
75538;BME280;64121;48.666;8.114;2023-05-23T08:57:35;100143.72;;;18.61;70.00
75538;BME280;64121;48.666;8.114;2023-05-23T09:00:02;100153.44;;;18.89;69.10
75538;BME280;64121;48.666;8.114;2023-05-23T09:02:28;100159.88;;;18.96;69.26
75538;BME280;64121;48.666;8.114;2023-05-23T09:04:55;100159.47;;;18.87;68.68
75538;BME280;64121;48.666;8.114;2023-05-23T09:07:22;100155.06;;;19.15;66.99
75538;BME280;64121;48.666;8.114;2023-05-23T09:09:47;100170.78;;;19.37;66.14
75538;BME280;64121;48.666;8.114;2023-05-23T09:12:12;100166.34;;;19.32;65.65
75538;BME280;64121;48.666;8.114;2023-05-23T09:14:38;100168.75;;;19.73;64.68
75538;BME280;64121;48.666;8.114;2023-05-23T09:17:04;100167.81;;;20.15;62.83
75538;BME280;64121;48.666;8.114;2023-05-23T09:19:29;100162.59;;;20.07;63.03
75538;BME280;64121;48.666;8.114;2023-05-23T09:21:55;100169.44;;;20.13;63.30
75538;BME280;64121;48.666;8.114;2023-05-23T09:24:21;100176.22;;;20.33;63.75
75538;BME280;64121;48.666;8.114;2023-05-23T09:26:47;100172.88;;;20.60;62.25
75538;BME280;64121;48.666;8.114;2023-05-23T09:29:13;100173.53;;;19.94;62.81
75538;BME280;64121;48.666;8.114;2023-05-23T09:31:38;100170.69;;;19.98;62.80
75538;BME280;64121;48.666;8.114;2023-05-23T09:34:03;100186.09;;;19.72;62.74
75538;BME280;64121;48.666;8.114;2023-05-23T09:36:30;100175.94;;;20.03;61.97
75538;BME280;64121;48.666;8.114;2023-05-23T09:38:55;100175.38;;;20.43;62.06
75538;BME280;64121;48.666;8.114;2023-05-23T09:41:22;100168.19;;;20.28;62.71
75538;BME280;64121;48.666;8.114;2023-05-23T09:43:51;100179.41;;;20.39;62.48
75538;BME280;64121;48.666;8.114;2023-05-23T09:46:18;100179.53;;;20.14;62.34
75538;BME280;64121;48.666;8.114;2023-05-23T09:48:45;100178.31;;;20.08;62.67
75538;BME280;64121;48.666;8.114;2023-05-23T09:51:11;100183.66;;;19.70;63.42
75538;BME280;64121;48.666;8.114;2023-05-23T09:53:36;100180.38;;;19.89;63.62
75538;BME280;64121;48.666;8.114;2023-05-23T09:56:02;100181.63;;;20.86;62.69
75538;BME280;64121;48.666;8.114;2023-05-23T09:58:29;100185.22;;;20.91;61.72
75538;BME280;64121;48.666;8.114;2023-05-23T10:00:59;100187.09;;;21.11;60.52
75538;BME280;64121;48.666;8.114;2023-05-23T10:03:30;100192.78;;;22.01;58.62
75538;BME280;64121;48.666;8.114;2023-05-23T10:05:59;100191.69;;;21.46;58.95
75538;BME280;64121;48.666;8.114;2023-05-23T10:08:32;100184.38;;;20.97;60.42
75538;BME280;64121;48.666;8.114;2023-05-23T10:14:16;100190.25;;;21.28;58.79
75538;BME280;64121;48.666;8.114;2023-05-23T10:21:48;100191.88;;;20.55;60.35
75538;BME280;64121;48.666;8.114;2023-05-23T10:24:14;100200.53;;;20.97;59.69
75538;BME280;64121;48.666;8.114;2023-05-23T10:26:40;100193.00;;;20.72;61.02
75538;BME280;64121;48.666;8.114;2023-05-23T10:29:07;100193.75;;;20.80;58.94
75538;BME280;64121;48.666;8.114;2023-05-23T10:31:34;100201.41;;;20.86;58.73
75538;BME280;64121;48.666;8.114;2023-05-23T10:34:07;100211.03;;;21.55;57.08
75538;BME280;64121;48.666;8.114;2023-05-23T10:36:41;100198.50;;;21.53;56.82
75538;BME280;64121;48.666;8.114;2023-05-23T10:39:11;100207.50;;;20.81;57.63
75538;BME280;64121;48.666;8.114;2023-05-23T10:41:44;100197.66;;;20.20;59.07
75538;BME280;64121;48.666;8.114;2023-05-23T10:44:24;100195.59;;;20.35;59.21
75538;BME280;64121;48.666;8.114;2023-05-23T10:46:53;100209.81;;;20.13;58.86
75538;BME280;64121;48.666;8.114;2023-05-23T10:49:18;100202.41;;;20.51;58.73
75538;BME280;64121;48.666;8.114;2023-05-23T10:51:47;100208.50;;;20.50;58.93
75538;BME280;64121;48.666;8.114;2023-05-23T10:54:13;100205.19;;;20.59;58.90
75538;BME280;64121;48.666;8.114;2023-05-23T10:56:38;100202.84;;;20.39;59.20
75538;BME280;64121;48.666;8.114;2023-05-23T10:59:04;100213.69;;;20.55;59.27
75538;BME280;64121;48.666;8.114;2023-05-23T11:01:29;100213.63;;;20.73;58.37
75538;BME280;64121;48.666;8.114;2023-05-23T11:03:56;100217.38;;;20.48;57.77
75538;BME280;64121;48.666;8.114;2023-05-23T11:06:30;100217.78;;;20.40;59.81
75538;BME280;64121;48.666;8.114;2023-05-23T11:11:54;100214.81;;;20.75;59.19
75538;BME280;64121;48.666;8.114;2023-05-23T11:14:30;100223.66;;;20.81;57.92
75538;BME280;64121;48.666;8.114;2023-05-23T11:16:56;100218.22;;;21.11;56.04
75538;BME280;64121;48.666;8.114;2023-05-23T11:19:24;100222.06;;;20.80;57.03
75538;BME280;64121;48.666;8.114;2023-05-23T11:21:56;100206.84;;;20.52;58.34
75538;BME280;64121;48.666;8.114;2023-05-23T11:24:22;100214.81;;;20.75;57.99
75538;BME280;64121;48.666;8.114;2023-05-23T11:26:51;100210.09;;;20.51;58.57
75538;BME280;64121;48.666;8.114;2023-05-23T11:29:17;100200.19;;;20.88;57.86
75538;BME280;64121;48.666;8.114;2023-05-23T11:31:43;100210.28;;;20.92;57.62
75538;BME280;64121;48.666;8.114;2023-05-23T11:34:10;100206.19;;;20.97;57.86
75538;BME280;64121;48.666;8.114;2023-05-23T11:36:37;100200.81;;;20.40;57.72
75538;BME280;64121;48.666;8.114;2023-05-23T11:39:03;100212.16;;;21.65;55.44
75538;BME280;64121;48.666;8.114;2023-05-23T11:41:29;100205.69;;;20.46;57.64
75538;BME280;64121;48.666;8.114;2023-05-23T11:43:54;100211.34;;;21.64;55.57
75538;BME280;64121;48.666;8.114;2023-05-23T11:46:19;100207.72;;;21.64;56.08
75538;BME280;64121;48.666;8.114;2023-05-23T11:48:45;100211.63;;;21.32;55.18
75538;BME280;64121;48.666;8.114;2023-05-23T11:51:10;100214.00;;;21.41;55.39
75538;BME280;64121;48.666;8.114;2023-05-23T11:53:37;100212.75;;;20.79;56.99
75538;BME280;64121;48.666;8.114;2023-05-23T11:56:03;100209.50;;;20.81;55.97
75538;BME280;64121;48.666;8.114;2023-05-23T11:58:31;100212.91;;;21.24;55.13
75538;BME280;64121;48.666;8.114;2023-05-23T12:00:58;100213.97;;;20.85;55.24
75538;BME280;64121;48.666;8.114;2023-05-23T12:03:24;100212.91;;;21.21;53.10
75538;BME280;64121;48.666;8.114;2023-05-23T12:05:49;100222.25;;;21.66;53.42
75538;BME280;64121;48.666;8.114;2023-05-23T12:08:15;100205.88;;;20.80;54.75
75538;BME280;64121;48.666;8.114;2023-05-23T12:10:53;100204.75;;;20.71;55.27
75538;BME280;64121;48.666;8.114;2023-05-23T12:13:23;100196.97;;;20.89;55.67
75538;BME280;64121;48.666;8.114;2023-05-23T12:15:49;100197.03;;;21.82;53.01
75538;BME280;64121;48.666;8.114;2023-05-23T12:18:14;100195.94;;;21.69;53.96
75538;BME280;64121;48.666;8.114;2023-05-23T12:20:40;100196.31;;;21.23;53.76
75538;BME280;64121;48.666;8.114;2023-05-23T12:23:05;100188.66;;;21.16;54.32
75538;BME280;64121;48.666;8.114;2023-05-23T12:25:37;100195.88;;;21.31;54.31
75538;BME280;64121;48.666;8.114;2023-05-23T12:28:04;100187.63;;;20.92;55.16
75538;BME280;64121;48.666;8.114;2023-05-23T12:30:40;100184.88;;;20.81;53.68
75538;BME280;64121;48.666;8.114;2023-05-23T12:33:07;100184.66;;;20.51;55.47
75538;BME280;64121;48.666;8.114;2023-05-23T12:35:32;100187.34;;;20.72;55.43
75538;BME280;64121;48.666;8.114;2023-05-23T12:37:58;100191.97;;;21.07;54.19
75538;BME280;64121;48.666;8.114;2023-05-23T12:40:23;100187.59;;;21.51;53.66
75538;BME280;64121;48.666;8.114;2023-05-23T12:42:49;100190.31;;;22.03;51.76
75538;BME280;64121;48.666;8.114;2023-05-23T12:45:16;100189.19;;;22.34;52.10
75538;BME280;64121;48.666;8.114;2023-05-23T12:47:42;100189.66;;;21.88;53.07
75538;BME280;64121;48.666;8.114;2023-05-23T12:50:08;100188.16;;;22.48;50.81
75538;BME280;64121;48.666;8.114;2023-05-23T12:52:33;100187.13;;;22.65;48.95
75538;BME280;64121;48.666;8.114;2023-05-23T12:54:58;100183.88;;;22.67;49.67
75538;BME280;64121;48.666;8.114;2023-05-23T12:57:24;100183.38;;;22.11;51.17
75538;BME280;64121;48.666;8.114;2023-05-23T12:59:49;100188.94;;;21.81;52.50